createdAt,value
2018-05-26T00:02:28.958Z,5.07
2018-05-26T00:07:22.255Z,5.10
2018-05-26T00:12:16.307Z,5.10
2018-05-26T00:17:09.641Z,5.30
2018-05-26T00:22:02.949Z,4.93
2018-05-26T00:26:56.241Z,5.30
2018-05-26T00:31:49.563Z,5.33
2018-05-26T00:36:42.866Z,5.70
2018-05-26T00:41:36.163Z,4.97
2018-05-26T00:46:29.487Z,6.60
2018-05-26T00:51:23.553Z,13.03
2018-05-26T00:56:16.866Z,17.57
2018-05-26T01:01:10.948Z,15.23
2018-05-26T01:06:05.020Z,13.87
2018-05-26T01:10:58.334Z,10.63
2018-05-26T01:15:51.657Z,9.93
2018-05-26T01:20:44.950Z,7.40
2018-05-26T01:25:38.259Z,7.50
2018-05-26T01:30:32.371Z,6.63
2018-05-26T01:35:25.648Z,6.17
2018-05-26T01:40:18.944Z,6.50
2018-05-26T01:45:12.239Z,6.80
2018-05-26T01:50:05.566Z,7.13
2018-05-26T01:54:59.623Z,6.57
2018-05-26T01:59:52.910Z,6.73
2018-05-26T02:04:46.183Z,7.17
2018-05-26T02:09:39.487Z,8.03
2018-05-26T02:14:33.568Z,7.53
2018-05-26T02:19:27.630Z,7.33
2018-05-26T02:24:21.844Z,8.00
2018-05-26T02:29:15.207Z,7.77
2018-05-26T02:34:08.509Z,7.07
2018-05-26T02:39:01.841Z,6.97
2018-05-26T02:43:55.143Z,7.30
2018-05-26T02:48:48.443Z,7.03
2018-05-26T02:53:42.511Z,6.40
2018-05-26T02:58:35.825Z,6.90
2018-05-26T03:03:29.953Z,6.73
2018-05-26T03:08:28.607Z,6.50
2018-05-26T03:13:27.412Z,7.00
2018-05-26T03:18:20.751Z,6.40
2018-05-26T03:23:14.051Z,6.37
2018-05-26T03:28:07.354Z,6.60
2018-05-26T03:33:01.421Z,5.97
2018-05-26T03:37:54.722Z,6.20
2018-05-26T03:42:48.075Z,5.60
2018-05-26T03:47:41.403Z,5.97
2018-05-26T03:52:34.713Z,5.83
2018-05-26T03:57:46.252Z,6.33
2018-05-26T04:02:39.575Z,5.77
2018-05-26T04:07:32.863Z,6.00
2018-05-26T04:12:26.162Z,6.07
2018-05-26T04:17:19.463Z,6.17
2018-05-26T04:22:12.763Z,6.10
2018-05-26T04:27:06.847Z,5.70
2018-05-26T04:32:00.930Z,5.37
2018-05-26T04:36:54.222Z,6.20
2018-05-26T04:41:48.300Z,6.10
2018-05-26T04:46:41.621Z,6.23
2018-05-26T04:51:34.954Z,6.60
2018-05-26T04:56:28.258Z,6.50
2018-05-26T05:01:22.331Z,6.40
2018-05-26T05:06:15.631Z,6.30
2018-05-26T05:11:08.940Z,6.80
2018-05-26T05:16:02.415Z,6.87
2018-05-26T05:20:55.725Z,7.43
2018-05-26T05:25:49.019Z,7.63
2018-05-26T05:30:43.088Z,7.47
2018-05-26T05:35:36.410Z,7.43
2018-05-26T05:40:30.470Z,7.80
2018-05-26T05:45:23.770Z,7.70
2018-05-26T05:50:17.830Z,6.37
2018-05-26T05:55:11.181Z,7.70
2018-05-26T06:00:04.496Z,6.17
2018-05-26T06:04:57.811Z,7.37
2018-05-26T06:09:51.879Z,6.33
2018-05-26T06:14:45.319Z,9.13
2018-05-26T06:19:38.641Z,8.70
2018-05-26T06:24:32.724Z,7.00
2018-05-26T06:29:26.024Z,7.03
2018-05-26T06:34:20.551Z,7.70
2018-05-26T06:39:13.880Z,7.87
2018-05-26T06:44:07.187Z,8.83
2018-05-26T06:49:01.274Z,7.43
2018-05-26T06:53:55.386Z,6.40
2018-05-26T06:58:49.448Z,6.60
2018-05-26T07:03:42.783Z,6.03
2018-05-26T07:08:36.885Z,6.00
2018-05-26T07:13:30.977Z,5.20
2018-05-26T07:18:24.296Z,5.47
2018-05-26T07:23:17.700Z,5.50
2018-05-26T07:28:11.751Z,5.00
2018-05-26T07:33:05.052Z,5.63
2018-05-26T07:37:58.402Z,6.10
2018-05-26T07:42:51.707Z,5.57
2018-05-26T07:47:45.056Z,5.27
2018-05-26T07:52:38.351Z,5.73
2018-05-26T07:57:31.682Z,5.47
2018-05-26T08:02:24.969Z,5.40
2018-05-26T08:07:18.279Z,5.00
2018-05-26T08:12:11.609Z,5.00
2018-05-26T08:17:04.975Z,4.68
2018-05-26T08:21:58.263Z,5.10
2018-05-26T08:26:51.822Z,5.20
2018-05-26T08:31:45.903Z,5.12
2018-05-26T08:36:39.221Z,5.28
2018-05-26T08:41:33.296Z,4.95
2018-05-26T08:46:26.600Z,5.15
2018-05-26T08:51:20.714Z,5.32
2018-05-26T08:56:14.004Z,5.00
2018-05-26T09:01:07.302Z,5.82
2018-05-26T09:06:00.622Z,5.53
2018-05-26T09:10:54.695Z,5.37
2018-05-26T09:15:48.048Z,5.60
2018-05-26T09:20:41.371Z,5.47
2018-05-26T09:25:34.711Z,5.45
2018-05-26T09:30:28.770Z,5.07
2018-05-26T09:35:22.083Z,6.00
2018-05-26T09:40:15.393Z,5.32
2018-05-26T09:45:08.748Z,6.20
2018-05-26T09:50:02.848Z,5.55
2018-05-26T09:54:56.941Z,5.10
2018-05-26T09:59:50.257Z,5.32
2018-05-26T10:04:43.581Z,5.18
2018-05-26T10:09:36.918Z,5.32
2018-05-26T10:14:30.260Z,5.40
2018-05-26T10:19:23.534Z,4.80
2018-05-26T10:24:16.829Z,4.65
2018-05-26T10:29:10.888Z,5.40
2018-05-26T10:34:04.196Z,4.53
2018-05-26T10:38:57.511Z,4.80
2018-05-26T10:43:50.875Z,4.28
2018-05-26T10:48:44.175Z,4.32
2018-05-26T10:53:37.873Z,4.47
2018-05-26T10:58:31.222Z,4.28
2018-05-26T11:03:24.551Z,4.47
2018-05-26T11:08:18.644Z,4.85
2018-05-26T11:13:12.596Z,4.43
2018-05-26T11:18:05.903Z,4.57
2018-05-26T11:22:59.208Z,4.62
2018-05-26T11:27:53.287Z,4.20
2018-05-26T11:32:46.588Z,4.15
2018-05-26T11:37:40.661Z,4.75
2018-05-26T11:42:33.983Z,4.40
2018-05-26T11:47:27.284Z,4.10
2018-05-26T11:52:20.627Z,4.30
2018-05-26T11:57:13.944Z,3.85
2018-05-26T12:02:07.319Z,3.40
2018-05-26T12:07:01.363Z,2.97
2018-05-26T12:11:54.665Z,3.25
2018-05-26T12:16:48.041Z,3.03
2018-05-26T12:21:41.415Z,3.30
2018-05-26T12:26:34.759Z,3.53
2018-05-26T12:31:28.839Z,3.22
2018-05-26T12:36:22.208Z,3.70
2018-05-26T12:41:15.575Z,3.10
2018-05-26T12:46:08.861Z,3.25
2018-05-26T12:51:02.209Z,3.00
2018-05-26T12:55:55.544Z,2.90
2018-05-26T13:00:49.638Z,3.22
2018-05-26T13:05:43.703Z,2.78
2018-05-26T13:10:37.027Z,3.05
2018-05-26T13:15:30.342Z,3.33
2018-05-26T13:20:23.659Z,3.30
2018-05-26T13:25:17.088Z,2.97
2018-05-26T13:30:10.453Z,3.25
2018-05-26T13:35:03.849Z,3.28
2018-05-26T13:39:57.151Z,2.50
2018-05-26T13:44:50.463Z,2.92
2018-05-26T13:49:44.535Z,3.17
2018-05-26T13:54:37.922Z,5.47
2018-05-26T13:59:31.962Z,3.50
2018-05-26T14:04:25.388Z,4.22
2018-05-26T14:09:18.737Z,4.57
2018-05-26T14:14:12.074Z,3.40
2018-05-26T14:19:05.375Z,3.37
2018-05-26T14:23:58.680Z,3.10
2018-05-26T14:28:51.975Z,3.58
2018-05-26T14:33:46.818Z,3.00
2018-05-26T14:38:41.029Z,3.28
2018-05-26T14:43:34.328Z,2.97
2018-05-26T14:48:27.654Z,2.83
2018-05-26T14:53:20.981Z,2.78
2018-05-26T14:58:14.294Z,2.95
2018-05-26T15:03:07.633Z,3.10
2018-05-26T15:08:00.992Z,2.72
2018-05-26T15:12:54.407Z,3.00
2018-05-26T15:17:47.672Z,2.85
2018-05-26T15:22:41.041Z,2.90
2018-05-26T15:27:34.339Z,3.33
2018-05-26T15:32:27.655Z,3.30
2018-05-26T15:37:21.744Z,3.37
2018-05-26T15:42:15.073Z,3.22
2018-05-26T15:47:08.391Z,3.28
2018-05-26T15:52:01.739Z,4.97
2018-05-26T15:56:55.066Z,3.65
2018-05-26T16:01:49.142Z,3.33
2018-05-26T16:06:42.714Z,3.72
2018-05-26T16:11:36.052Z,3.92
2018-05-26T16:16:29.383Z,3.85
2018-05-26T16:21:22.703Z,3.60
2018-05-26T16:26:15.982Z,3.37
2018-05-26T16:31:09.292Z,3.60
2018-05-26T16:36:02.637Z,4.00
2018-05-26T16:40:55.949Z,3.47
2018-05-26T16:45:49.247Z,3.60
2018-05-26T16:50:42.557Z,3.87
2018-05-26T16:55:35.858Z,3.12
2018-05-26T17:00:29.168Z,3.45
2018-05-26T17:05:22.469Z,3.90
2018-05-26T17:10:16.522Z,3.70
2018-05-26T17:15:09.839Z,3.75
2018-05-26T17:20:03.944Z,4.05
2018-05-26T17:24:58.015Z,3.10
2018-05-26T17:29:51.326Z,3.62
2018-05-26T17:34:44.646Z,3.08
2018-05-26T17:39:37.963Z,3.40
2018-05-26T17:44:32.012Z,3.33
2018-05-26T17:49:25.330Z,4.32
2018-05-26T17:54:19.384Z,4.10
2018-05-26T17:59:14.315Z,4.70
2018-05-26T18:04:07.615Z,4.30
2018-05-26T18:09:01.695Z,3.90
2018-05-26T18:13:54.997Z,4.65
2018-05-26T18:18:49.089Z,7.07
2018-05-26T18:23:43.164Z,5.57
2018-05-26T18:28:36.544Z,5.45
2018-05-26T18:33:29.839Z,4.25
2018-05-26T18:38:23.923Z,3.90
2018-05-26T18:43:17.227Z,4.43
2018-05-26T18:48:10.518Z,4.78
2018-05-26T18:53:03.827Z,4.25
2018-05-26T18:57:57.145Z,3.92
2018-05-26T19:02:50.523Z,4.37
2018-05-26T19:07:44.601Z,4.18
2018-05-26T19:12:37.919Z,5.18
2018-05-26T19:17:31.223Z,4.40
2018-05-26T19:22:24.558Z,4.72
2018-05-26T19:27:18.631Z,5.10
2018-05-26T19:32:11.951Z,4.50
2018-05-26T19:37:05.343Z,4.78
2018-05-26T19:41:59.374Z,4.97
2018-05-26T19:46:53.632Z,4.80
2018-05-26T19:51:46.964Z,5.30
2018-05-26T19:56:41.077Z,5.90
2018-05-26T20:01:35.165Z,5.78
2018-05-26T20:06:30.180Z,6.40
2018-05-26T20:11:24.245Z,5.75
2018-05-26T20:16:17.550Z,6.00
2018-05-26T20:21:10.843Z,5.50
2018-05-26T20:26:04.159Z,5.82
2018-05-26T20:30:57.458Z,6.40
2018-05-26T20:35:50.810Z,7.95
2018-05-26T20:40:44.128Z,7.00
2018-05-26T20:45:38.198Z,6.78
2018-05-26T20:50:31.516Z,7.53
2018-05-26T20:55:25.587Z,7.72
2018-05-26T21:00:18.902Z,6.80
2018-05-26T21:05:12.208Z,5.78
2018-05-26T21:10:05.522Z,5.80
2018-05-26T21:14:58.813Z,5.37
2018-05-26T21:19:52.143Z,5.53
2018-05-26T21:24:45.463Z,5.22
2018-05-26T21:29:39.539Z,5.03
2018-05-26T21:34:32.842Z,5.17
2018-05-26T21:39:26.936Z,5.50
2018-05-26T21:44:21.048Z,5.18
2018-05-26T21:49:14.349Z,5.80
2018-05-26T21:54:08.439Z,6.40
2018-05-26T21:59:01.983Z,6.70
2018-05-26T22:03:55.287Z,6.53
2018-05-26T22:08:48.667Z,6.10
2018-05-26T22:13:41.987Z,5.85
2018-05-26T22:18:35.271Z,6.00
2018-05-26T22:23:28.589Z,5.93
2018-05-26T22:28:21.924Z,6.67
2018-05-26T22:33:15.246Z,5.53
2018-05-26T22:38:08.563Z,5.17
2018-05-26T22:43:01.895Z,5.37
2018-05-26T22:47:55.196Z,5.30
2018-05-26T22:52:49.114Z,4.83
2018-05-26T22:57:42.478Z,5.47
2018-05-26T23:02:35.776Z,5.27
2018-05-26T23:07:29.085Z,5.70
2018-05-26T23:12:23.148Z,6.43
2018-05-26T23:17:16.471Z,5.10
2018-05-26T23:22:09.786Z,5.53
2018-05-26T23:27:03.846Z,5.40
2018-05-26T23:31:57.123Z,5.90
2018-05-26T23:36:50.430Z,5.50
2018-05-26T23:41:43.746Z,5.97
2018-05-26T23:46:37.313Z,7.63
2018-05-26T23:51:30.620Z,6.57
2018-05-26T23:56:24.709Z,6.83
